.
WxDataArchive / Data Records for 2010-09-21
2010-09-20 September 2010 2010-09-22

Data Records for Tuesday, 21 September 2010

Time	Temp	Chill	HIndex	Humid	Dewpt	 Wind 	HiWind	WindDir	Rain 	Barom 
-----	----	-----	------	-----	-----	------	------	-------	-----	----- 
00:00	64.8	64.8	64.8	68	54.0	0	2	90	0.00	30.039 
00:05	64.7	64.7	64.7	69	54.3	0	2	90	0.00	30.039 
00:10	64.5	64.5	64.5	69	54.1	0	1	90	0.00	30.039 
00:15	64.2	64.2	64.2	69	53.8	0	2	90	0.00	30.038 
00:20	64.0	64.0	64.0	70	54.0	0	2	90	0.00	30.038 
00:25	63.9	63.9	63.9	70	53.9	0	1	90	0.00	30.038 
00:30	63.9	63.9	63.9	70	53.9	0	1	90	0.00	30.037 
00:35	63.7	63.7	63.7	70	53.7	0	2	90	0.00	30.037 
00:40	63.7	63.7	63.7	71	54.1	0	1	90	0.00	30.037 
00:45	63.5	63.5	63.5	71	53.9	0	1	90	0.00	30.036 
00:50	63.4	63.4	63.4	72	54.2	0	1	90	0.00	30.036 
00:55	63.2	63.2	63.2	72	54.0	0	1	90	0.00	30.036 
01:00	63.1	63.1	63.1	73	54.3	0	1	90	0.00	30.036 
01:05	62.9	62.9	62.9	73	54.1	0	1	90	0.00	30.036 
01:10	62.9	62.9	62.9	73	54.1	0	1	90	0.00	30.036 
01:15	62.7	62.7	62.7	74	54.3	0	1	90	0.00	30.032 
01:20	62.6	62.6	62.6	74	54.2	0	1	90	0.00	30.032 
01:25	62.6	62.6	62.6	74	54.2	0	1	90	0.00	30.032 
01:30	62.4	62.4	62.4	74	54.0	0	1	90	0.00	30.033 
01:35	62.3	62.3	62.3	75	54.3	0	2	90	0.00	30.033 
01:40	62.1	62.1	62.1	75	54.1	0	2	90	0.00	30.033 
01:45	62.0	62.0	62.0	75	54.0	1	2	90	0.00	30.032 
01:50	62.0	62.0	62.0	76	54.3	0	1	90	0.00	30.032 
01:55	61.8	61.8	61.8	76	54.1	0	2	90	0.00	30.032 
02:00	61.6	61.6	61.6	77	54.3	0	1	90	0.00	30.032 
02:05	61.5	61.5	61.5	77	54.2	0	1	90	0.00	30.032 
02:10	61.5	61.5	61.5	77	54.2	0	1	90	0.00	30.032 
02:15	61.3	61.3	61.3	77	54.0	0	1	90	0.00	30.032 
02:20	61.3	61.3	61.3	78	54.4	0	1	90	0.00	30.032 
02:25	61.2	61.2	61.2	78	54.3	0	1	90	0.00	30.032 
02:30	61.0	61.0	61.0	78	54.1	0	1	90	0.00	30.031 
02:35	61.0	61.0	61.0	79	54.4	0	1	90	0.00	30.031 
02:40	60.9	60.9	60.9	79	54.3	0	0	---	0.00	30.031 
02:45	60.7	60.7	60.7	79	54.1	0	1	90	0.00	30.031 
02:50	60.5	60.5	60.5	80	54.3	0	0	---	0.00	30.031 
02:55	60.4	60.4	60.4	80	54.2	0	1	90	0.00	30.031 
03:00	60.4	60.4	60.4	80	54.2	0	1	90	0.00	30.031 
03:05	60.2	60.2	60.2	80	54.0	0	1	90	0.00	30.031 
03:10	60.2	60.2	60.2	81	54.3	0	0	---	0.00	30.031 
03:15	60.1	60.1	60.1	81	54.2	0	0	---	0.00	30.031 
03:20	60.1	60.1	60.1	81	54.2	0	1	90	0.00	30.031 
03:25	59.9	59.9	59.9	81	54.1	0	0	---	0.00	30.031 
03:30	59.9	59.9	59.9	81	54.1	0	0	---	0.00	30.022 
03:35	59.9	59.9	59.9	82	54.4	0	1	90	0.00	30.022 
03:40	59.8	59.8	59.8	82	54.3	0	0	---	0.00	30.022 
03:45	59.8	59.8	59.8	82	54.3	0	1	90	0.00	30.018 
03:50	59.6	59.6	59.6	83	54.4	0	0	---	0.00	30.018 
03:55	59.6	59.6	59.6	83	54.4	0	0	---	0.00	30.018 
04:00	59.6	59.6	59.6	83	54.4	0	0	---	0.00	30.012 
04:05	59.5	59.5	59.5	83	54.3	0	0	---	0.00	30.012 
04:10	59.5	59.5	59.5	83	54.3	0	0	---	0.00	30.012 
04:15	59.5	59.5	59.5	83	54.3	0	0	---	0.00	30.009 
04:20	59.3	59.3	59.3	83	54.1	0	0	---	0.00	30.009 
04:25	59.3	59.3	59.3	84	54.5	0	0	---	0.00	30.009 
04:30	59.2	59.2	59.2	84	54.4	0	0	---	0.00	30.007 
04:35	59.0	59.0	59.0	84	54.2	0	0	---	0.00	30.007 
04:40	59.0	59.0	59.0	84	54.2	0	0	---	0.00	30.007 
04:45	58.9	58.9	58.9	84	54.1	0	0	---	0.00	30.008 
04:50	58.7	58.7	58.7	84	53.9	0	0	---	0.00	30.008 
04:55	58.6	58.6	58.6	85	54.1	0	0	---	0.00	30.008 
05:00	58.6	58.6	58.6	85	54.1	0	0	---	0.00	30.007 
05:05	58.4	58.4	58.4	85	53.9	0	0	---	0.00	30.007 
05:10	58.3	58.3	58.3	86	54.1	0	0	---	0.00	30.007 
05:15	58.3	58.3	58.3	86	54.1	0	0	---	0.00	30.009 
05:20	58.3	58.3	58.3	87	54.4	0	0	---	0.00	30.009 
05:25	58.1	58.1	58.1	87	54.2	0	0	---	0.00	30.009 
05:30	58.1	58.1	58.1	87	54.2	0	0	---	0.00	30.010 
05:35	58.1	58.1	58.1	87	54.2	0	0	---	0.00	30.010 
05:40	58.0	58.0	58.0	87	54.1	0	0	---	0.00	30.010 
05:45	58.0	58.0	58.0	87	54.1	0	0	---	0.00	30.010 
05:50	58.0	58.0	58.0	87	54.1	0	0	---	0.00	30.010 
05:55	57.8	57.8	57.8	88	54.3	0	0	---	0.00	30.010 
06:00	57.8	57.8	57.8	88	54.3	0	0	---	0.00	30.009 
06:05	57.6	57.6	57.6	88	54.1	0	0	---	0.00	30.009 
06:10	57.6	57.6	57.6	88	54.1	0	0	---	0.00	30.009 
06:15	57.6	57.6	57.6	88	54.1	0	0	---	0.00	30.012 
06:20	57.6	57.6	57.6	88	54.1	0	0	---	0.00	30.012 
06:25	57.6	57.6	57.6	89	54.4	0	0	---	0.00	30.012 
06:30	57.6	57.6	57.6	89	54.4	0	0	---	0.00	30.011 
06:35	57.6	57.6	57.6	89	54.4	0	0	---	0.00	30.011 
06:40	57.6	57.6	57.6	89	54.4	0	0	---	0.00	30.011 
06:45	57.6	57.6	57.6	89	54.4	0	0	---	0.00	30.008 
06:50	57.6	57.6	57.6	89	54.4	0	0	---	0.00	30.008 
06:55	57.6	57.6	57.6	90	54.7	0	0	---	0.00	30.008 
07:00	57.8	57.8	57.8	90	54.9	0	0	---	0.00	30.008 
07:05	57.8	57.8	57.8	90	54.9	0	0	---	0.00	30.008 
07:10	58.0	58.0	58.0	90	55.1	0	0	---	0.00	30.008 
07:15	58.0	58.0	58.0	90	55.1	0	0	---	0.00	30.007 
07:20	58.1	58.1	58.1	90	55.2	0	0	---	0.00	30.007 
07:25	58.4	58.4	58.4	91	55.8	0	0	---	0.00	30.007 
07:30	58.6	58.6	58.6	91	56.0	0	0	---	0.00	30.006 
07:35	58.9	58.9	58.9	91	56.3	0	0	---	0.00	30.006 
07:40	59.2	59.2	59.2	91	56.6	0	0	---	0.00	30.006 
07:45	59.5	59.5	59.5	91	56.9	0	0	---	0.00	30.005 
07:50	59.9	59.9	59.9	90	57.0	0	0	---	0.00	30.005 
07:55	60.5	60.5	60.5	90	57.5	0	0	---	0.00	30.005 
08:00	60.9	60.9	60.9	89	57.6	0	0	---	0.00	30.005 
08:05	61.3	61.3	61.3	88	57.7	0	0	---	0.00	30.005 
08:10	62.0	62.0	62.0	88	58.4	0	0	---	0.00	30.005 
08:15	62.6	62.6	62.6	87	58.7	0	1	90	0.00	30.006 
08:20	63.1	63.1	63.1	85	58.5	0	0	---	0.00	30.006 
08:25	63.5	63.5	63.5	84	58.6	0	0	---	0.00	30.006 
08:30	64.2	64.2	64.2	83	58.9	0	2	270	0.00	30.004 
08:35	64.8	64.8	64.8	81	58.8	0	2	270	0.00	30.004 
08:40	65.6	65.6	65.6	80	59.3	0	1	248	0.00	30.004 
08:45	66.3	66.3	66.3	79	59.6	0	3	248	0.00	30.002 
08:50	66.9	66.9	66.9	77	59.4	0	2	248	0.00	30.002 
08:55	67.6	67.6	67.6	76	59.8	0	2	270	0.00	30.002 
09:00	68.1	68.1	68.1	75	59.9	0	2	45	0.00	30.000 
09:05	68.4	68.4	68.4	74	59.8	0	2	225	0.00	30.000 
09:10	68.8	68.8	68.8	73	59.8	1	3	315	0.00	30.000 
09:15	69.1	69.1	69.1	73	60.1	1	4	45	0.00	29.997 
09:20	69.4	69.4	69.4	72	60.0	1	5	315	0.00	29.997 
09:25	69.6	69.6	69.6	71	59.8	0	2	315	0.00	29.997 
09:30	69.8	69.8	69.8	71	60.0	0	3	270	0.00	29.993 
09:35	69.9	69.9	69.9	70	59.7	1	4	270	0.00	29.993 
09:40	70.3	70.3	70.3	70	60.0	1	3	270	0.00	29.993 
09:45	70.8	70.8	70.8	70	60.5	1	4	270	0.00	29.999 
09:50	71.3	71.3	71.3	68	60.2	1	4	270	0.00	29.999 
09:55	71.6	71.6	71.6	68	60.5	1	3	248	0.00	29.999 
10:00	72.0	72.0	72.0	68	60.8	1	5	292	0.00	29.993 
10:05	72.5	72.5	72.5	66	60.5	1	4	270	0.00	29.993 
10:10	73.2	73.2	73.2	65	60.7	0	2	270	0.00	29.993 
10:15	73.9	73.9	73.9	64	60.9	1	5	248	0.00	29.990 
10:20	74.7	74.7	74.7	63	61.2	1	5	292	0.00	29.990 
10:25	75.6	75.6	77.7	61	61.2	1	4	270	0.00	29.990 
10:30	76.3	76.3	78.2	60	61.4	1	4	270	0.00	29.985 
10:35	77.0	77.0	78.8	58	61.1	1	4	68	0.00	29.985 
10:40	77.7	77.7	79.3	56	60.7	1	5	270	0.00	29.985 
10:45	78.3	78.3	79.8	56	61.3	2	6	225	0.00	29.985 
10:50	78.8	78.8	80.1	55	61.2	1	4	270	0.00	29.985 
10:55	79.4	79.4	80.6	54	61.3	1	5	270	0.00	29.985 
11:00	79.8	79.8	80.9	53	61.1	2	5	270	0.00	29.982 
11:05	79.9	79.9	81.1	54	61.7	2	5	248	0.00	29.982 
11:10	80.1	80.1	81.2	53	61.4	1	6	315	0.00	29.982 
11:15	80.7	80.7	81.7	52	61.4	1	4	270	0.00	29.978 
11:20	81.1	81.1	82.0	51	61.2	2	5	270	0.00	29.978 
11:25	81.4	81.4	82.1	50	60.9	2	6	248	0.00	29.978 
11:30	81.6	81.6	82.5	51	61.7	2	4	270	0.00	29.972 
11:35	82.2	82.2	83.0	50	61.7	2	5	270	0.00	29.972 
11:40	82.6	82.6	83.4	50	62.0	1	5	270	0.00	29.972 
11:45	82.8	82.8	83.5	49	61.7	2	5	270	0.00	29.965 
11:50	83.2	83.2	84.1	50	62.6	1	7	270	0.00	29.965 
11:55	83.6	83.6	84.4	49	62.4	1	3	270	0.00	29.965 
12:00	84.1	84.1	84.8	48	62.3	1	5	270	0.00	29.963 
12:05	84.3	84.3	84.9	47	61.8	2	9	270	0.00	29.963 
12:10	84.3	84.3	84.7	46	61.2	2	6	270	0.00	29.963 
12:15	84.5	84.5	84.9	46	61.4	1	6	248	0.00	29.955 
12:20	84.7	84.7	85.2	46	61.6	2	6	248	0.00	29.955 
12:25	84.9	84.9	85.4	46	61.8	3	6	270	0.00	29.955 
12:30	85.1	85.1	85.7	46	62.0	1	3	315	0.00	29.952 
12:35	85.3	85.3	85.7	45	61.5	2	5	292	0.00	29.952 
12:40	85.3	85.3	85.9	46	62.1	2	5	292	0.00	29.952 
12:45	85.7	85.7	86.2	45	61.9	2	6	270	0.00	29.949 
12:50	85.9	85.9	86.2	44	61.4	3	9	270	0.00	29.949 
12:55	86.3	86.3	86.7	44	61.8	2	9	248	0.00	29.949 
13:00	87.0	87.0	87.6	44	62.4	2	4	315	0.00	29.941 
13:05	87.4	87.4	87.6	42	61.5	2	9	248	0.00	29.941 
13:10	87.6	87.6	88.2	43	62.3	1	4	292	0.00	29.941 
13:15	88.0	88.0	88.2	41	61.3	2	6	292	0.00	29.933 
13:20	88.0	88.0	88.2	41	61.3	3	5	270	0.00	29.933 
13:25	88.0	88.0	88.5	42	62.0	2	5	248	0.00	29.933 
13:30	88.2	88.2	88.4	41	61.5	2	5	270	0.00	29.926 
13:35	88.4	88.4	88.7	41	61.7	2	10	270	0.00	29.926 
13:40	88.8	88.8	89.0	40	61.3	1	4	270	0.00	29.926 
13:45	88.8	88.8	88.7	39	60.6	3	10	292	0.00	29.913 
13:50	89.0	89.0	89.0	39	60.8	2	11	270	0.00	29.913 
13:55	89.0	89.0	89.0	39	60.8	3	11	270	0.00	29.913 
14:00	89.0	89.0	89.0	39	60.8	2	4	270	0.00	29.903 
14:05	89.5	89.5	89.3	38	60.5	2	7	270	0.00	29.903 
14:10	89.5	89.5	89.1	37	59.7	3	8	270	0.00	29.903 
14:15	89.5	89.5	89.6	39	61.2	2	5	270	0.00	29.899 
14:20	89.7	89.7	89.3	37	59.9	1	5	270	0.00	29.899 
14:25	89.9	89.9	89.6	37	60.1	2	5	270	0.00	29.899 
14:30	89.7	89.7	89.3	37	59.9	2	5	248	0.00	29.892 
14:35	89.9	89.9	89.6	37	60.1	2	5	270	0.00	29.892 
14:40	89.7	89.7	89.3	37	59.9	2	6	315	0.00	29.892 
14:45	89.5	89.5	89.1	37	59.7	3	7	270	0.00	29.885 
14:50	89.7	89.7	89.3	37	59.9	2	4	270	0.00	29.885 
14:55	89.7	89.7	89.0	36	59.2	2	7	248	0.00	29.885 
15:00	90.1	90.1	90.2	38	61.0	2	6	248	0.00	29.883 
15:05	90.5	90.5	89.8	35	59.1	2	7	270	0.00	29.883 
15:10	90.5	90.5	90.1	36	59.9	2	5	270	0.00	29.883 
15:15	90.5	90.5	90.1	36	59.9	2	4	270	0.00	29.876 
15:20	90.5	90.5	90.1	36	59.9	2	4	270	0.00	29.876 
15:25	90.5	90.5	89.8	35	59.1	2	6	270	0.00	29.876 
15:30	90.5	90.5	89.8	35	59.1	2	4	248	0.00	29.879 
15:35	90.7	90.7	89.8	34	58.4	2	7	270	0.00	29.879 
15:40	90.7	90.7	90.1	35	59.2	2	4	270	0.00	29.879 
15:45	91.2	91.2	90.8	35	59.7	1	4	270	0.00	29.875 
15:50	91.4	91.4	90.7	34	59.0	2	6	270	0.00	29.875 
15:55	91.4	91.4	89.9	31	56.5	2	6	270	0.00	29.875 
16:00	91.4	91.4	89.9	31	56.5	3	8	270	0.00	29.874 
16:05	91.4	91.4	90.1	32	57.3	2	4	292	0.00	29.874 
16:10	91.2	91.2	90.2	33	58.0	2	6	270	0.00	29.874 
16:15	91.2	91.2	90.5	34	58.9	3	7	270	0.00	29.873 
16:20	91.2	91.2	90.8	35	59.7	2	4	270	0.00	29.873 
16:25	91.0	91.0	90.2	34	58.7	3	6	270	0.00	29.873 
16:30	91.0	91.0	90.5	35	59.5	2	6	248	0.00	29.871 
16:35	91.0	91.0	90.5	35	59.5	1	4	292	0.00	29.871 
16:40	91.2	91.2	90.5	34	58.9	2	5	292	0.00	29.871 
16:45	91.0	91.0	90.2	34	58.7	3	6	270	0.00	29.869 
16:50	91.0	91.0	89.6	32	57.0	2	5	270	0.00	29.869 
16:55	91.0	91.0	89.6	32	57.0	2	6	270	0.00	29.869 
17:00	91.0	91.0	89.6	32	57.0	1	5	248	0.00	29.869 
17:05	91.0	91.0	89.4	31	56.1	2	6	270	0.00	29.869 
17:10	91.0	91.0	89.1	30	55.2	1	4	270	0.00	29.869 
17:15	91.0	91.0	89.1	30	55.2	1	5	248	0.00	29.871 
17:20	90.7	90.7	88.7	30	55.0	3	6	270	0.00	29.871 
17:25	90.7	90.7	88.7	30	55.0	2	6	248	0.00	29.871 
17:30	90.7	90.7	88.7	30	55.0	1	3	270	0.00	29.870 
17:35	90.7	90.7	88.7	30	55.0	1	5	248	0.00	29.870 
17:40	90.5	90.5	88.5	30	54.8	2	7	270	0.00	29.870 
17:45	90.3	90.3	88.5	31	55.5	2	6	270	0.00	29.867 
17:50	90.3	90.3	88.5	31	55.5	1	4	270	0.00	29.867 
17:55	90.1	90.1	88.3	31	55.3	1	4	248	0.00	29.867 
18:00	89.9	89.9	88.0	31	55.2	1	4	248	0.00	29.861 
18:05	89.5	89.5	87.8	32	55.7	0	2	248	0.00	29.861 
18:10	89.3	89.3	87.6	32	55.5	2	4	270	0.00	29.861 
18:15	89.0	89.0	87.2	32	55.3	1	3	248	0.00	29.860 
18:20	88.8	88.8	87.2	33	55.9	0	2	248	0.00	29.860 
18:25	88.6	88.6	87.2	34	56.6	1	4	270	0.00	29.860 
18:30	88.4	88.4	86.9	34	56.4	1	2	270	0.00	29.856 
18:35	88.4	88.4	86.9	34	56.4	0	2	270	0.00	29.856 
18:40	88.2	88.2	86.7	34	56.2	0	2	270	0.00	29.856 
18:45	88.0	88.0	86.7	35	56.9	0	3	248	0.00	29.856 
18:50	87.8	87.8	86.5	35	56.7	0	2	248	0.00	29.856 
18:55	87.6	87.6	86.2	35	56.5	0	1	248	0.00	29.856 
19:00	87.4	87.4	86.2	36	57.1	0	2	248	0.00	29.858 
19:05	87.2	87.2	86.0	36	57.0	0	1	248	0.00	29.858 
19:10	86.7	86.7	85.6	37	57.3	0	1	248	0.00	29.858 
19:15	86.3	86.3	85.4	38	57.7	0	1	248	0.00	29.854 
19:20	85.9	85.9	84.9	38	57.3	0	1	248	0.00	29.854 
19:25	85.5	85.5	84.7	39	57.7	0	1	248	0.00	29.854 
19:30	85.1	85.1	84.3	39	57.3	0	1	248	0.00	29.852 
19:35	84.5	84.5	83.8	40	57.5	0	0	---	0.00	29.852 
19:40	84.1	84.1	83.6	41	57.8	0	0	---	0.00	29.852 
19:45	84.0	84.0	83.6	42	58.4	0	0	---	0.00	29.849 
19:50	83.6	83.6	83.4	43	58.7	0	0	---	0.00	29.849 
19:55	83.0	83.0	82.8	43	58.2	0	0	---	0.00	29.849 
20:00	82.6	82.6	82.5	44	58.4	0	0	---	0.00	29.845 
20:05	82.2	82.2	82.3	45	58.7	0	0	---	0.00	29.845 
20:10	81.6	81.6	81.8	46	58.8	0	0	---	0.00	29.845 
20:15	81.2	81.2	81.5	46	58.4	0	0	---	0.00	29.840 
20:20	80.9	80.9	81.3	47	58.8	0	0	---	0.00	29.840 
20:25	80.5	80.5	81.0	48	59.0	0	0	---	0.00	29.840 
20:30	80.1	80.1	80.8	49	59.2	0	0	---	0.00	29.846 
20:35	79.8	79.8	80.5	49	58.9	0	0	---	0.00	29.846 
20:40	79.4	79.4	80.3	50	59.1	0	0	---	0.00	29.846 
20:45	79.2	79.2	80.1	50	58.9	0	0	---	0.00	29.852 
20:50	79.0	79.0	80.0	50	58.7	0	0	---	0.00	29.852 
20:55	78.8	78.8	79.9	51	59.1	0	0	---	0.00	29.852 
21:00	78.8	78.8	79.9	51	59.1	0	0	---	0.00	29.855 
21:05	78.6	78.6	79.7	51	58.9	0	0	---	0.00	29.855 
21:10	78.6	78.6	79.8	52	59.5	0	0	---	0.00	29.855 
21:15	78.6	78.6	79.7	51	58.9	0	0	---	0.00	29.854 
21:20	78.5	78.5	79.7	52	59.4	0	0	---	0.00	29.854 
21:25	78.6	78.6	79.7	51	58.9	0	1	248	0.00	29.854 
21:30	78.8	78.8	79.9	51	59.1	0	1	248	0.00	29.858 
21:35	78.8	78.8	79.9	51	59.1	0	1	248	0.00	29.858 
21:40	78.8	78.8	79.9	51	59.1	0	1	248	0.00	29.858 
21:45	79.0	79.0	80.0	50	58.7	0	1	248	0.00	29.867 
21:50	79.2	79.2	80.1	50	58.9	0	1	248	0.00	29.867 
21:55	79.2	79.2	80.1	50	58.9	0	1	248	0.00	29.867 
22:00	79.2	79.2	80.1	50	58.9	0	1	248	0.00	29.870 
22:05	79.0	79.0	80.0	51	59.3	0	1	248	0.00	29.870 
22:10	78.8	78.8	79.9	51	59.1	0	1	248	0.00	29.870 
22:15	78.6	78.6	79.7	51	58.9	0	0	---	0.00	29.862 
22:20	78.5	78.5	79.7	52	59.4	0	0	---	0.00	29.862 
22:25	78.3	78.3	79.6	52	59.2	0	0	---	0.00	29.862 
22:30	78.5	78.5	79.7	52	59.4	0	1	248	0.00	29.861 
22:35	78.6	78.6	79.8	52	59.5	1	3	248	0.00	29.861 
22:40	79.6	79.6	80.5	50	59.3	3	6	248	0.00	29.861 
22:45	80.3	80.3	80.9	48	58.8	4	9	270	0.00	29.892 
22:50	80.3	80.3	81.0	49	59.4	4	10	270	0.00	29.892 
22:55	79.8	79.8	80.6	50	59.5	3	7	270	0.00	29.892 
23:00	79.4	79.4	80.4	51	59.7	3	7	270	0.00	29.895 
23:05	79.0	79.0	80.1	52	59.8	3	9	292	0.00	29.895 
23:10	78.5	78.5	79.8	53	59.9	3	9	270	0.00	29.895 
23:15	78.1	78.1	79.5	54	60.1	2	6	270	0.00	29.890 
23:20	77.7	77.7	79.2	55	60.2	2	7	270	0.00	29.890 
23:25	77.4	77.4	79.0	56	60.5	1	5	315	0.00	29.890 
23:30	76.8	76.8	78.6	57	60.4	1	4	270	0.00	29.888 
23:35	76.5	76.5	78.4	58	60.6	2	5	270	0.00	29.888 
23:40	76.3	76.3	78.2	58	60.4	1	3	270	0.00	29.888 
23:45	76.0	76.0	78.0	59	60.6	1	3	270	0.00	29.895 
23:50	75.8	75.8	77.9	60	60.9	1	3	292	0.00	29.895 
23:55	75.6	75.6	77.7	60	60.7	0	2	292	0.00	29.895 

CoCoRaHS
IN-AL-39
A2 Web Hosting
Creative Commons License
GoDaddy
search engine by freefind advanced

loaded 2018-11-14 03:31:54 • last modified 2010-11-18 10:43:29
Privacy PolicyDisclaimer
• wx.awcolley.com is powered by PmWiki v.2002016 •
• all content (unless otherwise noted) © 2018 A W Colley